sensor_id;sensor_type;location;lat;lon;timestamp;pressure;altitude;pressure_sealevel;temperature;humidity
65832;BME280;52593;42.648;23.332;2023-02-20T00:01:50;94851.94;;;8.93;59.89
65832;BME280;52593;42.648;23.332;2023-02-20T00:04:16;94855.41;;;8.93;60.15
65832;BME280;52593;42.648;23.332;2023-02-20T00:06:42;94850.75;;;8.96;60.17
65832;BME280;52593;42.648;23.332;2023-02-20T00:09:07;94851.41;;;8.89;60.36
65832;BME280;52593;42.648;23.332;2023-02-20T00:11:32;94863.25;;;8.95;60.26
65832;BME280;52593;42.648;23.332;2023-02-20T00:13:58;94870.09;;;8.98;60.38
65832;BME280;52593;42.648;23.332;2023-02-20T00:16:23;94860.25;;;8.90;60.87
65832;BME280;52593;42.648;23.332;2023-02-20T00:18:49;94854.25;;;8.80;61.36
65832;BME280;52593;42.648;23.332;2023-02-20T00:21:14;94848.06;;;8.71;61.94
65832;BME280;52593;42.648;23.332;2023-02-20T00:23:39;94855.88;;;8.64;62.33
65832;BME280;52593;42.648;23.332;2023-02-20T00:26:09;94842.06;;;8.61;62.42
65832;BME280;52593;42.648;23.332;2023-02-20T00:28:37;94841.38;;;8.59;62.78
65832;BME280;52593;42.648;23.332;2023-02-20T00:31:05;94834.03;;;8.52;62.98
65832;BME280;52593;42.648;23.332;2023-02-20T00:33:31;94852.19;;;8.57;63.41
65832;BME280;52593;42.648;23.332;2023-02-20T00:35:56;94830.00;;;8.48;63.35
65832;BME280;52593;42.648;23.332;2023-02-20T00:38:22;94847.72;;;8.57;63.34
65832;BME280;52593;42.648;23.332;2023-02-20T00:40:47;94855.56;;;8.59;63.60
65832;BME280;52593;42.648;23.332;2023-02-20T00:43:12;94836.38;;;8.64;62.91
65832;BME280;52593;42.648;23.332;2023-02-20T00:45:38;94827.69;;;8.62;62.86
65832;BME280;52593;42.648;23.332;2023-02-20T00:48:03;94833.69;;;8.55;62.96
65832;BME280;52593;42.648;23.332;2023-02-20T00:50:29;94846.53;;;8.52;63.14
65832;BME280;52593;42.648;23.332;2023-02-20T00:52:54;94840.69;;;8.56;63.10
65832;BME280;52593;42.648;23.332;2023-02-20T00:55:20;94849.69;;;8.47;63.28
65832;BME280;52593;42.648;23.332;2023-02-20T00:57:45;94849.13;;;8.35;63.77
65832;BME280;52593;42.648;23.332;2023-02-20T01:00:22;94868.97;;;8.41;63.42
65832;BME280;52593;42.648;23.332;2023-02-20T01:02:47;94855.59;;;8.33;63.75
65832;BME280;52593;42.648;23.332;2023-02-20T01:05:13;94877.31;;;8.38;63.62
65832;BME280;52593;42.648;23.332;2023-02-20T01:07:38;94882.25;;;8.33;63.68
65832;BME280;52593;42.648;23.332;2023-02-20T01:10:04;94883.44;;;8.30;63.97
65832;BME280;52593;42.648;23.332;2023-02-20T01:12:30;94887.25;;;8.28;63.99
65832;BME280;52593;42.648;23.332;2023-02-20T01:14:55;94886.75;;;8.24;64.25
65832;BME280;52593;42.648;23.332;2023-02-20T01:17:21;94875.56;;;8.20;64.40
65832;BME280;52593;42.648;23.332;2023-02-20T01:19:46;94890.25;;;8.25;64.30
65832;BME280;52593;42.648;23.332;2023-02-20T01:22:11;94897.19;;;8.17;64.85
65832;BME280;52593;42.648;23.332;2023-02-20T01:24:37;94883.53;;;8.12;65.00
65832;BME280;52593;42.648;23.332;2023-02-20T01:27:02;94901.72;;;8.17;65.41
65832;BME280;52593;42.648;23.332;2023-02-20T01:29:28;94895.56;;;8.16;65.60
65832;BME280;52593;42.648;23.332;2023-02-20T01:31:53;94886.19;;;8.12;65.54
65832;BME280;52593;42.648;23.332;2023-02-20T01:34:19;94907.22;;;8.24;65.86
65832;BME280;52593;42.648;23.332;2023-02-20T01:36:50;94910.75;;;8.24;65.76
65832;BME280;52593;42.648;23.332;2023-02-20T01:39:17;94911.22;;;8.19;66.15
65832;BME280;52593;42.648;23.332;2023-02-20T01:41:43;94909.53;;;8.18;66.39
65832;BME280;52593;42.648;23.332;2023-02-20T01:44:25;94917.41;;;8.28;66.23
65832;BME280;52593;42.648;23.332;2023-02-20T01:46:53;94915.91;;;8.26;66.11
65832;BME280;52593;42.648;23.332;2023-02-20T01:49:42;94916.59;;;8.28;66.36
65832;BME280;52593;42.648;23.332;2023-02-20T01:52:22;94911.56;;;8.25;66.68
65832;BME280;52593;42.648;23.332;2023-02-20T01:55:20;94916.75;;;8.26;67.23
65832;BME280;52593;42.648;23.332;2023-02-20T01:57:52;94923.84;;;8.17;67.65
65832;BME280;52593;42.648;23.332;2023-02-20T02:00:22;94934.84;;;8.14;67.89
65832;BME280;52593;42.648;23.332;2023-02-20T02:02:57;94926.16;;;8.04;68.11
65832;BME280;52593;42.648;23.332;2023-02-20T02:05:25;94941.44;;;8.02;68.44
65832;BME280;52593;42.648;23.332;2023-02-20T02:07:53;94942.78;;;7.98;68.88
65832;BME280;52593;42.648;23.332;2023-02-20T02:10:23;94943.69;;;7.89;69.30
65832;BME280;52593;42.648;23.332;2023-02-20T02:12:52;94952.25;;;7.74;69.55
65832;BME280;52593;42.648;23.332;2023-02-20T02:15:21;94944.91;;;7.68;69.26
65832;BME280;52593;42.648;23.332;2023-02-20T02:47:17;94941.84;;;7.19;67.82
65832;BME280;52593;42.648;23.332;2023-02-20T02:49:58;94935.47;;;7.11;67.27
65832;BME280;52593;42.648;23.332;2023-02-20T02:52:26;94954.31;;;7.18;67.11
65832;BME280;52593;42.648;23.332;2023-02-20T02:55:07;94950.97;;;7.16;66.92
65832;BME280;52593;42.648;23.332;2023-02-20T02:57:33;94945.81;;;7.14;67.06
65832;BME280;52593;42.648;23.332;2023-02-20T03:02:46;94945.59;;;7.26;66.77
65832;BME280;52593;42.648;23.332;2023-02-20T03:05:17;94937.22;;;7.21;66.73
65832;BME280;52593;42.648;23.332;2023-02-20T03:07:46;94946.88;;;7.22;66.63
65832;BME280;52593;42.648;23.332;2023-02-20T03:10:17;94951.94;;;7.15;67.05
65832;BME280;52593;42.648;23.332;2023-02-20T03:12:48;94963.47;;;7.16;67.03
65832;BME280;52593;42.648;23.332;2023-02-20T03:15:29;94967.91;;;7.15;66.96
65832;BME280;52593;42.648;23.332;2023-02-20T03:20:41;94984.94;;;7.04;67.28
65832;BME280;52593;42.648;23.332;2023-02-20T03:23:13;94974.91;;;6.98;67.47
65832;BME280;52593;42.648;23.332;2023-02-20T03:25:50;94979.41;;;6.97;67.50
65832;BME280;52593;42.648;23.332;2023-02-20T03:28:23;94975.66;;;6.90;67.69
65832;BME280;52593;42.648;23.332;2023-02-20T03:30:56;94998.63;;;6.91;67.50
65832;BME280;52593;42.648;23.332;2023-02-20T03:33:32;94984.66;;;6.89;67.57
65832;BME280;52593;42.648;23.332;2023-02-20T03:36:24;95018.50;;;6.97;67.65
65832;BME280;52593;42.648;23.332;2023-02-20T03:39:14;95008.75;;;6.88;67.92
65832;BME280;52593;42.648;23.332;2023-02-20T03:42:03;95012.47;;;6.95;67.81
65832;BME280;52593;42.648;23.332;2023-02-20T03:44:50;95010.97;;;6.92;67.65
65832;BME280;52593;42.648;23.332;2023-02-20T03:47:17;95003.13;;;6.91;67.81
65832;BME280;52593;42.648;23.332;2023-02-20T03:49:43;95009.72;;;6.87;67.73
65832;BME280;52593;42.648;23.332;2023-02-20T03:52:11;94993.84;;;6.77;67.18
65832;BME280;52593;42.648;23.332;2023-02-20T03:54:37;95003.88;;;6.83;67.12
65832;BME280;52593;42.648;23.332;2023-02-20T03:57:07;95008.78;;;6.78;67.38
65832;BME280;52593;42.648;23.332;2023-02-20T03:59:41;95024.06;;;6.76;67.66
65832;BME280;52593;42.648;23.332;2023-02-20T04:02:34;95029.84;;;6.71;67.63
65832;BME280;52593;42.648;23.332;2023-02-20T04:05:09;95030.13;;;6.68;67.32
65832;BME280;52593;42.648;23.332;2023-02-20T04:07:49;95025.47;;;6.70;66.63
65832;BME280;52593;42.648;23.332;2023-02-20T04:10:22;95015.16;;;6.67;66.67
65832;BME280;52593;42.648;23.332;2023-02-20T04:12:49;95027.56;;;6.76;66.07
65832;BME280;52593;42.648;23.332;2023-02-20T04:15:16;95018.59;;;6.77;66.26
65832;BME280;52593;42.648;23.332;2023-02-20T04:17:50;95008.94;;;6.76;66.36
65832;BME280;52593;42.648;23.332;2023-02-20T04:20:17;95010.69;;;6.86;65.83
65832;BME280;52593;42.648;23.332;2023-02-20T04:22:46;95020.88;;;6.90;65.09
65832;BME280;52593;42.648;23.332;2023-02-20T04:25:29;95015.97;;;6.95;65.18
65832;BME280;52593;42.648;23.332;2023-02-20T04:28:00;95031.63;;;6.99;65.07
65832;BME280;52593;42.648;23.332;2023-02-20T04:30:26;95036.09;;;6.98;65.29
65832;BME280;52593;42.648;23.332;2023-02-20T04:32:51;95022.34;;;6.85;65.99
65832;BME280;52593;42.648;23.332;2023-02-20T04:35:19;95024.75;;;6.78;66.64
65832;BME280;52593;42.648;23.332;2023-02-20T04:37:44;95026.56;;;6.77;66.75
65832;BME280;52593;42.648;23.332;2023-02-20T04:40:10;95030.50;;;6.73;67.15
65832;BME280;52593;42.648;23.332;2023-02-20T04:42:36;95012.53;;;6.57;67.16
65832;BME280;52593;42.648;23.332;2023-02-20T04:45:02;95009.75;;;6.59;67.06
65832;BME280;52593;42.648;23.332;2023-02-20T04:47:28;95022.31;;;6.57;66.79
65832;BME280;52593;42.648;23.332;2023-02-20T04:49:53;95020.09;;;6.52;66.01
65832;BME280;52593;42.648;23.332;2023-02-20T04:52:18;95022.91;;;6.51;66.16
65832;BME280;52593;42.648;23.332;2023-02-20T04:54:44;95002.94;;;6.47;65.62
65832;BME280;52593;42.648;23.332;2023-02-20T04:57:09;95022.53;;;6.46;65.39
65832;BME280;52593;42.648;23.332;2023-02-20T04:59:35;95023.34;;;6.56;63.81
65832;BME280;52593;42.648;23.332;2023-02-20T05:02:00;95044.59;;;6.56;64.09
65832;BME280;52593;42.648;23.332;2023-02-20T05:04:26;95041.81;;;6.48;63.56
65832;BME280;52593;42.648;23.332;2023-02-20T05:06:53;95047.44;;;6.45;63.66
65832;BME280;52593;42.648;23.332;2023-02-20T05:09:19;95075.25;;;6.50;63.99
65832;BME280;52593;42.648;23.332;2023-02-20T05:11:45;95071.34;;;6.45;63.15
65832;BME280;52593;42.648;23.332;2023-02-20T05:14:10;95062.69;;;6.42;62.38
65832;BME280;52593;42.648;23.332;2023-02-20T05:16:39;95067.47;;;6.39;62.97
65832;BME280;52593;42.648;23.332;2023-02-20T05:19:06;95073.09;;;6.26;62.65
65832;BME280;52593;42.648;23.332;2023-02-20T05:21:32;95048.09;;;6.09;62.58
65832;BME280;52593;42.648;23.332;2023-02-20T05:24:17;95057.63;;;6.12;62.66
65832;BME280;52593;42.648;23.332;2023-02-20T05:26:42;95067.56;;;6.10;62.89
65832;BME280;52593;42.648;23.332;2023-02-20T05:29:08;95079.97;;;6.09;63.31
65832;BME280;52593;42.648;23.332;2023-02-20T05:31:39;95071.47;;;6.05;63.60
65832;BME280;52593;42.648;23.332;2023-02-20T05:34:05;95083.50;;;6.10;63.83
65832;BME280;52593;42.648;23.332;2023-02-20T05:36:31;95083.66;;;6.08;63.81
65832;BME280;52593;42.648;23.332;2023-02-20T05:38:56;95097.19;;;6.15;64.16
65832;BME280;52593;42.648;23.332;2023-02-20T05:41:22;95112.56;;;6.21;64.41
65832;BME280;52593;42.648;23.332;2023-02-20T05:43:47;95110.03;;;6.19;64.39
65832;BME280;52593;42.648;23.332;2023-02-20T05:46:14;95113.94;;;6.15;65.17
65832;BME280;52593;42.648;23.332;2023-02-20T05:48:39;95112.16;;;6.16;64.92
65832;BME280;52593;42.648;23.332;2023-02-20T05:51:05;95101.25;;;6.09;65.44
65832;BME280;52593;42.648;23.332;2023-02-20T05:53:31;95098.28;;;6.12;65.57
65832;BME280;52593;42.648;23.332;2023-02-20T05:55:57;95092.00;;;6.13;65.33
65832;BME280;52593;42.648;23.332;2023-02-20T05:58:23;95089.34;;;6.13;65.33
65832;BME280;52593;42.648;23.332;2023-02-20T06:00:49;95086.81;;;6.21;65.57
65832;BME280;52593;42.648;23.332;2023-02-20T06:03:14;95092.97;;;6.22;65.00
65832;BME280;52593;42.648;23.332;2023-02-20T06:05:40;95086.81;;;6.31;64.00
65832;BME280;52593;42.648;23.332;2023-02-20T06:08:06;95103.41;;;6.43;62.77
65832;BME280;52593;42.648;23.332;2023-02-20T06:10:31;95095.84;;;6.48;63.24
65832;BME280;52593;42.648;23.332;2023-02-20T06:12:57;95115.91;;;6.70;59.72
65832;BME280;52593;42.648;23.332;2023-02-20T06:15:23;95110.56;;;6.80;58.75
65832;BME280;52593;42.648;23.332;2023-02-20T06:17:48;95098.63;;;6.84;58.11
65832;BME280;52593;42.648;23.332;2023-02-20T06:20:14;95113.03;;;6.91;57.51
65832;BME280;52593;42.648;23.332;2023-02-20T06:22:40;95127.31;;;6.90;58.02
65832;BME280;52593;42.648;23.332;2023-02-20T06:25:06;95102.09;;;6.94;58.55
65832;BME280;52593;42.648;23.332;2023-02-20T06:27:31;95108.81;;;6.99;58.94
65832;BME280;52593;42.648;23.332;2023-02-20T06:29:57;95106.06;;;7.08;58.59
65832;BME280;52593;42.648;23.332;2023-02-20T06:32:22;95108.53;;;7.20;58.19
65832;BME280;52593;42.648;23.332;2023-02-20T06:34:47;95112.03;;;7.20;56.66
65832;BME280;52593;42.648;23.332;2023-02-20T06:37:13;95111.44;;;7.26;56.45
65832;BME280;52593;42.648;23.332;2023-02-20T06:39:39;95119.63;;;7.43;56.65
65832;BME280;52593;42.648;23.332;2023-02-20T06:42:07;95120.16;;;7.46;56.38
65832;BME280;52593;42.648;23.332;2023-02-20T06:44:32;95127.75;;;7.41;57.56
65832;BME280;52593;42.648;23.332;2023-02-20T06:46:59;95139.69;;;7.37;56.56
65832;BME280;52593;42.648;23.332;2023-02-20T06:49:24;95138.72;;;7.38;59.11
65832;BME280;52593;42.648;23.332;2023-02-20T06:51:52;95117.41;;;7.38;57.82
65832;BME280;52593;42.648;23.332;2023-02-20T06:54:18;95131.84;;;7.36;56.80
65832;BME280;52593;42.648;23.332;2023-02-20T06:56:46;95146.19;;;7.25;57.14
65832;BME280;52593;42.648;23.332;2023-02-20T06:59:12;95145.22;;;7.26;57.42
65832;BME280;52593;42.648;23.332;2023-02-20T07:01:41;95145.31;;;7.06;57.78
65832;BME280;52593;42.648;23.332;2023-02-20T07:04:14;95136.31;;;7.07;56.99
65832;BME280;52593;42.648;23.332;2023-02-20T07:06:40;95143.03;;;7.11;57.38
65832;BME280;52593;42.648;23.332;2023-02-20T07:09:06;95156.59;;;7.18;57.00
65832;BME280;52593;42.648;23.332;2023-02-20T07:11:32;95131.75;;;7.27;57.11
65832;BME280;52593;42.648;23.332;2023-02-20T07:13:57;95123.47;;;7.30;55.69
65832;BME280;52593;42.648;23.332;2023-02-20T07:16:22;95139.69;;;7.37;55.73
65832;BME280;52593;42.648;23.332;2023-02-20T07:18:48;95145.38;;;7.42;55.68
65832;BME280;52593;42.648;23.332;2023-02-20T07:21:13;95132.22;;;7.41;54.31
65832;BME280;52593;42.648;23.332;2023-02-20T07:23:39;95159.56;;;7.61;57.26
65832;BME280;52593;42.648;23.332;2023-02-20T07:26:04;95156.72;;;7.72;55.42
65832;BME280;52593;42.648;23.332;2023-02-20T07:28:29;95172.88;;;7.61;51.59
65832;BME280;52593;42.648;23.332;2023-02-20T07:30:55;95138.56;;;7.58;51.86
65832;BME280;52593;42.648;23.332;2023-02-20T07:33:20;95156.19;;;7.41;51.99
65832;BME280;52593;42.648;23.332;2023-02-20T07:35:46;95171.03;;;7.43;50.65
65832;BME280;52593;42.648;23.332;2023-02-20T07:38:12;95171.34;;;7.40;50.46
65832;BME280;52593;42.648;23.332;2023-02-20T07:40:37;95161.88;;;7.28;50.61
65832;BME280;52593;42.648;23.332;2023-02-20T07:43:02;95151.06;;;7.29;50.81
65832;BME280;52593;42.648;23.332;2023-02-20T07:45:28;95159.59;;;7.33;50.38
65832;BME280;52593;42.648;23.332;2023-02-20T07:47:53;95175.53;;;7.43;50.53
65832;BME280;52593;42.648;23.332;2023-02-20T07:50:19;95146.69;;;7.38;49.51
65832;BME280;52593;42.648;23.332;2023-02-20T07:52:45;95159.50;;;7.53;50.24
65832;BME280;52593;42.648;23.332;2023-02-20T07:55:15;95176.50;;;7.42;48.65
65832;BME280;52593;42.648;23.332;2023-02-20T07:57:42;95183.09;;;7.38;49.29
65832;BME280;52593;42.648;23.332;2023-02-20T08:00:13;95180.94;;;7.51;49.53
65832;BME280;52593;42.648;23.332;2023-02-20T08:02:38;95197.06;;;7.49;48.64
65832;BME280;52593;42.648;23.332;2023-02-20T08:05:04;95200.47;;;7.42;48.63
65832;BME280;52593;42.648;23.332;2023-02-20T08:07:29;95201.88;;;7.46;48.88
65832;BME280;52593;42.648;23.332;2023-02-20T08:09:55;95189.06;;;7.49;47.77
65832;BME280;52593;42.648;23.332;2023-02-20T08:12:20;95188.88;;;7.61;47.36
65832;BME280;52593;42.648;23.332;2023-02-20T08:14:48;95200.91;;;7.65;46.64
65832;BME280;52593;42.648;23.332;2023-02-20T08:17:14;95187.28;;;7.68;46.68
65832;BME280;52593;42.648;23.332;2023-02-20T08:19:40;95184.09;;;7.64;47.50
65832;BME280;52593;42.648;23.332;2023-02-20T08:22:05;95212.78;;;7.89;47.41
65832;BME280;52593;42.648;23.332;2023-02-20T08:24:32;95186.03;;;7.90;47.22
65832;BME280;52593;42.648;23.332;2023-02-20T08:26:57;95200.47;;;7.88;47.57
65832;BME280;52593;42.648;23.332;2023-02-20T08:29:22;95189.66;;;7.89;47.71
65832;BME280;52593;42.648;23.332;2023-02-20T08:31:48;95192.19;;;7.91;46.95
65832;BME280;52593;42.648;23.332;2023-02-20T08:34:13;95174.28;;;7.83;47.06
65832;BME280;52593;42.648;23.332;2023-02-20T08:36:40;95181.53;;;7.91;47.72
65832;BME280;52593;42.648;23.332;2023-02-20T08:39:05;95192.72;;;7.94;47.82
65832;BME280;52593;42.648;23.332;2023-02-20T08:41:31;95202.75;;;8.00;47.81
65832;BME280;52593;42.648;23.332;2023-02-20T08:43:56;95178.47;;;7.85;47.21
65832;BME280;52593;42.648;23.332;2023-02-20T08:46:22;95195.97;;;7.88;47.54
65832;BME280;52593;42.648;23.332;2023-02-20T08:48:47;95182.16;;;8.02;46.75
65832;BME280;52593;42.648;23.332;2023-02-20T08:51:17;95206.66;;;8.06;47.22
65832;BME280;52593;42.648;23.332;2023-02-20T08:53:43;95213.06;;;8.13;46.79
65832;BME280;52593;42.648;23.332;2023-02-20T08:56:09;95195.31;;;8.04;46.54
65832;BME280;52593;42.648;23.332;2023-02-20T08:58:36;95201.53;;;8.31;46.03
65832;BME280;52593;42.648;23.332;2023-02-20T09:01:02;95212.22;;;8.31;45.74
65832;BME280;52593;42.648;23.332;2023-02-20T09:03:28;95189.44;;;8.18;45.30
65832;BME280;52593;42.648;23.332;2023-02-20T09:05:53;95179.41;;;8.12;45.94
65832;BME280;52593;42.648;23.332;2023-02-20T09:08:19;95196.47;;;8.19;45.96
65832;BME280;52593;42.648;23.332;2023-02-20T09:10:44;95226.78;;;8.18;46.46
65832;BME280;52593;42.648;23.332;2023-02-20T09:13:10;95183.34;;;8.08;46.46
65832;BME280;52593;42.648;23.332;2023-02-20T09:15:37;95178.47;;;8.21;47.00
65832;BME280;52593;42.648;23.332;2023-02-20T09:18:09;95157.91;;;8.14;46.27
65832;BME280;52593;42.648;23.332;2023-02-20T09:20:36;95155.72;;;8.09;46.39
65832;BME280;52593;42.648;23.332;2023-02-20T09:23:02;95186.38;;;8.31;46.51
65832;BME280;52593;42.648;23.332;2023-02-20T09:25:27;95179.69;;;8.27;46.48
65832;BME280;52593;42.648;23.332;2023-02-20T09:27:53;95192.47;;;8.24;46.92
65832;BME280;52593;42.648;23.332;2023-02-20T09:30:19;95157.34;;;8.28;47.04
65832;BME280;52593;42.648;23.332;2023-02-20T09:32:46;95179.59;;;8.55;46.72
65832;BME280;52593;42.648;23.332;2023-02-20T09:35:24;95150.63;;;8.42;47.02
65832;BME280;52593;42.648;23.332;2023-02-20T09:37:49;95160.53;;;8.50;47.27
65832;BME280;52593;42.648;23.332;2023-02-20T09:40:16;95177.63;;;8.83;47.09
65832;BME280;52593;42.648;23.332;2023-02-20T09:45:40;95169.03;;;8.98;46.09
65832;BME280;52593;42.648;23.332;2023-02-20T09:48:22;95170.31;;;8.85;45.85
65832;BME280;52593;42.648;23.332;2023-02-20T09:50:54;95179.34;;;8.92;45.88
65832;BME280;52593;42.648;23.332;2023-02-20T09:55:48;95160.97;;;8.89;45.54
65832;BME280;52593;42.648;23.332;2023-02-20T09:58:42;95180.03;;;9.29;45.48
65832;BME280;52593;42.648;23.332;2023-02-20T10:01:10;95174.84;;;9.27;44.73
65832;BME280;52593;42.648;23.332;2023-02-20T10:03:58;95185.69;;;9.26;42.61
65832;BME280;52593;42.648;23.332;2023-02-20T10:06:30;95178.88;;;8.97;42.55
65832;BME280;52593;42.648;23.332;2023-02-20T10:08:56;95177.38;;;8.95;43.19
65832;BME280;52593;42.648;23.332;2023-02-20T10:14:16;95182.88;;;9.27;42.22
65832;BME280;52593;42.648;23.332;2023-02-20T10:16:54;95190.56;;;9.31;41.09
65832;BME280;52593;42.648;23.332;2023-02-20T10:19:39;95187.09;;;9.38;40.90
65832;BME280;52593;42.648;23.332;2023-02-20T10:27:24;95175.31;;;9.57;40.65
65832;BME280;52593;42.648;23.332;2023-02-20T10:29:52;95155.28;;;9.61;40.17
65832;BME280;52593;42.648;23.332;2023-02-20T10:32:22;95137.94;;;9.66;40.00
65832;BME280;52593;42.648;23.332;2023-02-20T10:34:59;95152.97;;;9.67;39.05
65832;BME280;52593;42.648;23.332;2023-02-20T10:37:33;95150.78;;;9.62;39.13
65832;BME280;52593;42.648;23.332;2023-02-20T10:46:06;95157.03;;;10.04;38.50
65832;BME280;52593;42.648;23.332;2023-02-20T10:48:34;95153.00;;;9.99;38.69
65832;BME280;52593;42.648;23.332;2023-02-20T10:51:29;95168.22;;;9.99;37.71
65832;BME280;52593;42.648;23.332;2023-02-20T10:54:02;95138.00;;;10.23;38.05
65832;BME280;52593;42.648;23.332;2023-02-20T11:01:23;95130.66;;;10.50;37.68
65832;BME280;52593;42.648;23.332;2023-02-20T11:03:58;95116.44;;;10.66;38.46
65832;BME280;52593;42.648;23.332;2023-02-20T11:06:30;95097.53;;;10.67;38.13
65832;BME280;52593;42.648;23.332;2023-02-20T11:08:56;95113.75;;;10.74;38.60
65832;BME280;52593;42.648;23.332;2023-02-20T11:11:34;95100.56;;;10.64;38.61
65832;BME280;52593;42.648;23.332;2023-02-20T11:14:10;95090.75;;;10.96;38.59
65832;BME280;52593;42.648;23.332;2023-02-20T11:16:40;95094.53;;;10.70;38.82
65832;BME280;52593;42.648;23.332;2023-02-20T11:19:12;95102.22;;;10.74;38.07
65832;BME280;52593;42.648;23.332;2023-02-20T11:21:42;95083.13;;;10.68;38.29
65832;BME280;52593;42.648;23.332;2023-02-20T11:24:36;95108.03;;;10.77;39.14
65832;BME280;52593;42.648;23.332;2023-02-20T11:29:38;95116.56;;;10.89;38.53
65832;BME280;52593;42.648;23.332;2023-02-20T11:35:03;95090.13;;;10.78;38.66
65832;BME280;52593;42.648;23.332;2023-02-20T11:37:29;95100.84;;;10.86;39.08
65832;BME280;52593;42.648;23.332;2023-02-20T11:39:58;95107.00;;;10.86;39.10
65832;BME280;52593;42.648;23.332;2023-02-20T11:42:31;95089.50;;;10.67;39.57
65832;BME280;52593;42.648;23.332;2023-02-20T11:45:32;95104.88;;;10.65;39.42
65832;BME280;52593;42.648;23.332;2023-02-20T11:48:24;95108.66;;;10.96;38.70
65832;BME280;52593;42.648;23.332;2023-02-20T11:50:51;95116.25;;;10.76;38.88
65832;BME280;52593;42.648;23.332;2023-02-20T11:55:42;95102.66;;;10.94;38.88
65832;BME280;52593;42.648;23.332;2023-02-20T11:58:20;95117.19;;;10.99;38.43
65832;BME280;52593;42.648;23.332;2023-02-20T12:00:47;95107.91;;;10.70;38.67
65832;BME280;52593;42.648;23.332;2023-02-20T12:03:19;95085.81;;;10.77;38.43
65832;BME280;52593;42.648;23.332;2023-02-20T12:05:46;95082.97;;;10.70;38.54
65832;BME280;52593;42.648;23.332;2023-02-20T12:11:18;95081.63;;;10.74;38.55
65832;BME280;52593;42.648;23.332;2023-02-20T12:13:46;95084.38;;;10.97;37.88
65832;BME280;52593;42.648;23.332;2023-02-20T12:16:35;95076.25;;;11.22;37.78
65832;BME280;52593;42.648;23.332;2023-02-20T12:22:08;95104.91;;;11.53;36.59
65832;BME280;52593;42.648;23.332;2023-02-20T12:35:56;95092.84;;;11.26;37.30
65832;BME280;52593;42.648;23.332;2023-02-20T12:41:30;95109.91;;;11.16;37.49
65832;BME280;52593;42.648;23.332;2023-02-20T12:56:15;95103.91;;;11.14;37.80
65832;BME280;52593;42.648;23.332;2023-02-20T13:01:11;95071.81;;;11.37;37.42
65832;BME280;52593;42.648;23.332;2023-02-20T13:03:46;95075.22;;;11.63;37.13
65832;BME280;52593;42.648;23.332;2023-02-20T13:07:14;95086.09;;;11.61;37.06
65832;BME280;52593;42.648;23.332;2023-02-20T13:09:23;95109.25;;;11.54;37.50
65832;BME280;52593;42.648;23.332;2023-02-20T13:11:55;95105.78;;;11.45;37.45
65832;BME280;52593;42.648;23.332;2023-02-20T13:17:39;95102.69;;;11.96;37.09
65832;BME280;52593;42.648;23.332;2023-02-20T13:19:53;95094.81;;;11.94;36.37
65832;BME280;52593;42.648;23.332;2023-02-20T13:22:20;95084.59;;;12.36;35.67
65832;BME280;52593;42.648;23.332;2023-02-20T13:24:46;95071.41;;;12.79;34.54
65832;BME280;52593;42.648;23.332;2023-02-20T13:27:27;95064.81;;;12.97;34.10
65832;BME280;52593;42.648;23.332;2023-02-20T13:29:59;95083.53;;;12.90;34.13
65832;BME280;52593;42.648;23.332;2023-02-20T13:32:30;95075.13;;;13.08;33.64
65832;BME280;52593;42.648;23.332;2023-02-20T13:35:32;95087.81;;;12.99;34.38
65832;BME280;52593;42.648;23.332;2023-02-20T13:38:14;95089.06;;;12.59;35.89
65832;BME280;52593;42.648;23.332;2023-02-20T13:45:46;95093.13;;;13.96;33.45
65832;BME280;52593;42.648;23.332;2023-02-20T13:56:25;95107.38;;;11.63;36.59
65832;BME280;52593;42.648;23.332;2023-02-20T13:58:53;95098.00;;;12.36;36.30
65832;BME280;52593;42.648;23.332;2023-02-20T14:01:20;95105.28;;;12.27;36.50
65832;BME280;52593;42.648;23.332;2023-02-20T14:03:59;95115.03;;;13.56;34.81
65832;BME280;52593;42.648;23.332;2023-02-20T14:06:24;95119.81;;;14.12;34.05
65832;BME280;52593;42.648;23.332;2023-02-20T14:09:06;95111.44;;;14.07;33.62
65832;BME280;52593;42.648;23.332;2023-02-20T14:11:34;95109.13;;;13.82;33.93
65832;BME280;52593;42.648;23.332;2023-02-20T14:14:15;95124.03;;;14.21;33.23
65832;BME280;52593;42.648;23.332;2023-02-20T14:16:46;95106.09;;;14.50;33.12
65832;BME280;52593;42.648;23.332;2023-02-20T14:19:19;95101.88;;;14.97;32.33
65832;BME280;52593;42.648;23.332;2023-02-20T14:21:46;95096.09;;;15.36;31.60
65832;BME280;52593;42.648;23.332;2023-02-20T14:24:25;95105.91;;;14.80;32.51
65832;BME280;52593;42.648;23.332;2023-02-20T14:26:51;95104.56;;;14.62;32.83
65832;BME280;52593;42.648;23.332;2023-02-20T14:29:26;95104.03;;;13.87;34.66
65832;BME280;52593;42.648;23.332;2023-02-20T14:31:54;95119.41;;;14.58;33.39
65832;BME280;52593;42.648;23.332;2023-02-20T14:34:52;95129.91;;;12.69;36.63
65832;BME280;52593;42.648;23.332;2023-02-20T14:37:29;95135.88;;;11.16;39.48
65832;BME280;52593;42.648;23.332;2023-02-20T14:42:27;95124.66;;;10.48;41.20
65832;BME280;52593;42.648;23.332;2023-02-20T14:44:59;95138.72;;;10.42;41.95
65832;BME280;52593;42.648;23.332;2023-02-20T14:47:25;95135.19;;;10.41;41.89
65832;BME280;52593;42.648;23.332;2023-02-20T14:49:50;95136.47;;;10.29;41.93
65832;BME280;52593;42.648;23.332;2023-02-20T14:52:20;95126.78;;;10.20;42.02
65832;BME280;52593;42.648;23.332;2023-02-20T14:55:01;95142.53;;;10.39;41.87
65832;BME280;52593;42.648;23.332;2023-02-20T14:57:28;95147.84;;;10.23;41.66
65832;BME280;52593;42.648;23.332;2023-02-20T15:02:42;95168.06;;;9.92;43.13
65832;BME280;52593;42.648;23.332;2023-02-20T15:05:14;95153.47;;;9.70;43.46
65832;BME280;52593;42.648;23.332;2023-02-20T15:07:42;95149.13;;;9.69;43.85
65832;BME280;52593;42.648;23.332;2023-02-20T15:10:30;95163.13;;;9.63;44.21
65832;BME280;52593;42.648;23.332;2023-02-20T15:13:04;95146.91;;;9.56;44.44
65832;BME280;52593;42.648;23.332;2023-02-20T15:15:39;95129.28;;;9.29;44.91